sensor_id;sensor_type;location;lat;lon;timestamp;P1;P2;P0
32066;PMS7003;18573;47.890;35.066;2022-09-09T00:04:34;19.00;17.75;13.25
32066;PMS7003;18573;47.890;35.066;2022-09-09T00:07:25;22.00;19.00;13.25
32066;PMS7003;18573;47.890;35.066;2022-09-09T00:10:16;20.75;19.75;11.50
32066;PMS7003;18573;47.890;35.066;2022-09-09T00:12:55;19.75;16.00;10.50
32066;PMS7003;18573;47.890;35.066;2022-09-09T00:15:25;19.00;18.00;12.50
32066;PMS7003;18573;47.890;35.066;2022-09-09T00:23:37;32.50;28.25;16.00
32066;PMS7003;18573;47.890;35.066;2022-09-09T00:31:39;226.50;198.00;96.00
32066;PMS7003;18573;47.890;35.066;2022-09-09T00:34:09;38.50;36.00;24.00
32066;PMS7003;18573;47.890;35.066;2022-09-09T00:36:41;40.50;36.50;24.50
32066;PMS7003;18573;47.890;35.066;2022-09-09T00:39:59;22.50;20.50;12.00
32066;PMS7003;18573;47.890;35.066;2022-09-09T00:47:43;43.50;36.00;23.00
32066;PMS7003;18573;47.890;35.066;2022-09-09T00:56:04;23.50;21.00;14.25
32066;PMS7003;18573;47.890;35.066;2022-09-09T00:58:52;24.50;24.50;16.25
32066;PMS7003;18573;47.890;35.066;2022-09-09T01:01:18;21.25;19.00;11.75
32066;PMS7003;18573;47.890;35.066;2022-09-09T01:06:29;25.75;23.50;13.00
32066;PMS7003;18573;47.890;35.066;2022-09-09T01:11:57;25.25;23.00;16.00
32066;PMS7003;18573;47.890;35.066;2022-09-09T01:14:47;33.50;30.50;18.75
32066;PMS7003;18573;47.890;35.066;2022-09-09T01:17:22;29.75;28.75;21.75
32066;PMS7003;18573;47.890;35.066;2022-09-09T01:20:04;35.50;33.50;27.75
32066;PMS7003;18573;47.890;35.066;2022-09-09T01:23:05;37.75;35.75;24.50
32066;PMS7003;18573;47.890;35.066;2022-09-09T01:28:32;35.75;33.00;27.75
32066;PMS7003;18573;47.890;35.066;2022-09-09T01:31:04;43.50;39.25;27.75
32066;PMS7003;18573;47.890;35.066;2022-09-09T01:33:36;43.25;38.50;29.00
32066;PMS7003;18573;47.890;35.066;2022-09-09T01:36:09;45.50;41.75;32.00
32066;PMS7003;18573;47.890;35.066;2022-09-09T01:38:55;47.25;42.25;33.25
32066;PMS7003;18573;47.890;35.066;2022-09-09T01:41:24;47.75;42.25;33.75
32066;PMS7003;18573;47.890;35.066;2022-09-09T01:43:54;49.00;42.00;33.00
32066;PMS7003;18573;47.890;35.066;2022-09-09T01:46:24;50.25;42.00;32.50
32066;PMS7003;18573;47.890;35.066;2022-09-09T01:48:55;47.00;42.75;32.00
32066;PMS7003;18573;47.890;35.066;2022-09-09T01:51:27;48.25;42.50;31.50
32066;PMS7003;18573;47.890;35.066;2022-09-09T01:53:57;39.00;33.50;24.75
32066;PMS7003;18573;47.890;35.066;2022-09-09T01:56:35;33.00;26.00;19.25
32066;PMS7003;18573;47.890;35.066;2022-09-09T02:02:10;30.50;28.25;17.00
32066;PMS7003;18573;47.890;35.066;2022-09-09T02:07:15;25.25;25.25;16.75
32066;PMS7003;18573;47.890;35.066;2022-09-09T02:09:42;37.00;35.75;21.75
32066;PMS7003;18573;47.890;35.066;2022-09-09T02:12:14;30.50;29.75;20.25
32066;PMS7003;18573;47.890;35.066;2022-09-09T02:14:48;30.75;29.50;18.75
32066;PMS7003;18573;47.890;35.066;2022-09-09T02:17:23;37.50;30.75;20.75
32066;PMS7003;18573;47.890;35.066;2022-09-09T02:19:54;36.25;35.75;25.75
32066;PMS7003;18573;47.890;35.066;2022-09-09T02:22:25;39.00;36.50;25.00
32066;PMS7003;18573;47.890;35.066;2022-09-09T02:24:57;35.50;34.75;25.75
32066;PMS7003;18573;47.890;35.066;2022-09-09T02:27:28;44.50;38.50;28.50
32066;PMS7003;18573;47.890;35.066;2022-09-09T02:29:58;52.25;45.75;33.00
32066;PMS7003;18573;47.890;35.066;2022-09-09T02:32:29;51.75;44.25;33.25
32066;PMS7003;18573;47.890;35.066;2022-09-09T02:35:05;58.75;49.50;38.25
32066;PMS7003;18573;47.890;35.066;2022-09-09T02:37:37;64.75;54.00;40.75
32066;PMS7003;18573;47.890;35.066;2022-09-09T02:40:09;59.25;50.75;37.25
32066;PMS7003;18573;47.890;35.066;2022-09-09T02:42:41;42.75;37.50;27.50
32066;PMS7003;18573;47.890;35.066;2022-09-09T02:45:14;36.50;31.50;21.75
32066;PMS7003;18573;47.890;35.066;2022-09-09T02:47:50;24.75;22.50;16.00
32066;PMS7003;18573;47.890;35.066;2022-09-09T02:50:35;33.25;33.25;19.75
32066;PMS7003;18573;47.890;35.066;2022-09-09T02:53:20;32.25;31.00;20.00
32066;PMS7003;18573;47.890;35.066;2022-09-09T02:56:25;36.25;32.50;23.75
32066;PMS7003;18573;47.890;35.066;2022-09-09T02:58:34;39.75;37.75;26.50
32066;PMS7003;18573;47.890;35.066;2022-09-09T03:01:04;42.00;39.00;27.50
32066;PMS7003;18573;47.890;35.066;2022-09-09T03:03:33;41.00;37.50;26.75
32066;PMS7003;18573;47.890;35.066;2022-09-09T03:06:03;39.75;37.50;26.50
32066;PMS7003;18573;47.890;35.066;2022-09-09T03:08:32;45.25;40.75;28.75
32066;PMS7003;18573;47.890;35.066;2022-09-09T03:11:01;35.25;33.50;26.50
32066;PMS7003;18573;47.890;35.066;2022-09-09T03:13:31;38.50;35.00;22.00
32066;PMS7003;18573;47.890;35.066;2022-09-09T03:16:00;33.50;29.75;18.50
32066;PMS7003;18573;47.890;35.066;2022-09-09T03:18:31;22.50;22.25;13.50
32066;PMS7003;18573;47.890;35.066;2022-09-09T03:21:01;35.25;33.75;20.50
32066;PMS7003;18573;47.890;35.066;2022-09-09T03:23:30;36.50;31.00;18.00
32066;PMS7003;18573;47.890;35.066;2022-09-09T03:25:59;32.50;30.75;17.00
32066;PMS7003;18573;47.890;35.066;2022-09-09T03:28:28;28.25;28.00;15.50
32066;PMS7003;18573;47.890;35.066;2022-09-09T03:31:01;33.50;31.00;19.00
32066;PMS7003;18573;47.890;35.066;2022-09-09T03:33:32;41.25;33.50;21.75
32066;PMS7003;18573;47.890;35.066;2022-09-09T03:36:03;44.75;38.50;25.25
32066;PMS7003;18573;47.890;35.066;2022-09-09T03:38:34;41.75;38.25;25.25
32066;PMS7003;18573;47.890;35.066;2022-09-09T03:41:03;37.25;36.00;21.75
32066;PMS7003;18573;47.890;35.066;2022-09-09T03:43:33;37.50;32.75;18.00
32066;PMS7003;18573;47.890;35.066;2022-09-09T03:46:02;29.50;28.00;16.25
32066;PMS7003;18573;47.890;35.066;2022-09-09T03:48:31;44.25;38.25;20.25
32066;PMS7003;18573;47.890;35.066;2022-09-09T03:51:00;28.25;28.00;18.25
32066;PMS7003;18573;47.890;35.066;2022-09-09T03:53:30;39.75;37.50;25.50
32066;PMS7003;18573;47.890;35.066;2022-09-09T03:56:01;49.50;42.25;32.50
32066;PMS7003;18573;47.890;35.066;2022-09-09T03:58:33;51.50;44.50;32.00
32066;PMS7003;18573;47.890;35.066;2022-09-09T04:01:05;46.25;39.25;27.25
32066;PMS7003;18573;47.890;35.066;2022-09-09T04:03:40;36.50;31.75;22.00
32066;PMS7003;18573;47.890;35.066;2022-09-09T04:06:10;36.00;31.75;18.25
32066;PMS7003;18573;47.890;35.066;2022-09-09T04:08:41;33.50;30.50;19.00
32066;PMS7003;18573;47.890;35.066;2022-09-09T04:11:12;38.25;35.00;20.25
32066;PMS7003;18573;47.890;35.066;2022-09-09T04:13:41;31.25;31.25;21.00
32066;PMS7003;18573;47.890;35.066;2022-09-09T04:16:11;35.25;33.00;20.75
32066;PMS7003;18573;47.890;35.066;2022-09-09T04:18:41;31.50;27.25;18.25
32066;PMS7003;18573;47.890;35.066;2022-09-09T04:21:11;37.25;29.75;19.50
32066;PMS7003;18573;47.890;35.066;2022-09-09T04:23:40;34.40;31.60;21.00
32066;PMS7003;18573;47.890;35.066;2022-09-09T04:26:09;22.40;21.40;13.80
32066;PMS7003;18573;47.890;35.066;2022-09-09T04:28:38;26.00;24.40;17.80
32066;PMS7003;18573;47.890;35.066;2022-09-09T04:31:14;29.20;29.20;18.40
32066;PMS7003;18573;47.890;35.066;2022-09-09T04:33:45;34.60;28.80;20.60
32066;PMS7003;18573;47.890;35.066;2022-09-09T04:36:15;35.40;28.60;17.60
32066;PMS7003;18573;47.890;35.066;2022-09-09T04:38:46;30.80;26.00;17.00
32066;PMS7003;18573;47.890;35.066;2022-09-09T04:41:17;30.60;30.60;21.00
32066;PMS7003;18573;47.890;35.066;2022-09-09T04:43:46;26.60;25.60;16.80
32066;PMS7003;18573;47.890;35.066;2022-09-09T04:46:15;23.60;21.60;13.40
32066;PMS7003;18573;47.890;35.066;2022-09-09T04:48:44;25.20;25.20;18.00
32066;PMS7003;18573;47.890;35.066;2022-09-09T04:51:14;27.00;25.00;16.50
32066;PMS7003;18573;47.890;35.066;2022-09-09T04:53:44;28.20;28.20;19.60
32066;PMS7003;18573;47.890;35.066;2022-09-09T04:56:15;30.20;28.80;19.00
32066;PMS7003;18573;47.890;35.066;2022-09-09T04:58:45;26.80;22.60;17.80
32066;PMS7003;18573;47.890;35.066;2022-09-09T05:01:16;25.20;24.60;15.40
32066;PMS7003;18573;47.890;35.066;2022-09-09T05:03:51;25.60;25.20;17.40
32066;PMS7003;18573;47.890;35.066;2022-09-09T05:06:21;21.20;20.80;16.00
32066;PMS7003;18573;47.890;35.066;2022-09-09T05:08:50;25.60;25.60;18.60
32066;PMS7003;18573;47.890;35.066;2022-09-09T05:11:20;23.20;22.80;17.00
32066;PMS7003;18573;47.890;35.066;2022-09-09T05:13:51;28.60;26.40;18.80
32066;PMS7003;18573;47.890;35.066;2022-09-09T05:16:21;27.60;27.40;18.40
32066;PMS7003;18573;47.890;35.066;2022-09-09T05:18:51;31.20;29.60;20.40
32066;PMS7003;18573;47.890;35.066;2022-09-09T05:21:21;33.20;30.00;19.80
32066;PMS7003;18573;47.890;35.066;2022-09-09T05:23:53;30.80;29.00;19.20
32066;PMS7003;18573;47.890;35.066;2022-09-09T05:26:22;27.80;24.00;19.40
32066;PMS7003;18573;47.890;35.066;2022-09-09T05:28:52;29.60;27.40;20.00
32066;PMS7003;18573;47.890;35.066;2022-09-09T05:31:22;26.00;25.80;18.00
32066;PMS7003;18573;47.890;35.066;2022-09-09T05:33:53;15.20;13.80;11.00
32066;PMS7003;18573;47.890;35.066;2022-09-09T05:36:22;25.00;22.40;16.20
32066;PMS7003;18573;47.890;35.066;2022-09-09T05:38:52;23.80;23.80;16.40
32066;PMS7003;18573;47.890;35.066;2022-09-09T05:41:22;28.40;26.00;16.20
32066;PMS7003;18573;47.890;35.066;2022-09-09T05:43:52;21.80;21.80;15.20
32066;PMS7003;18573;47.890;35.066;2022-09-09T05:46:23;26.40;23.40;17.40
32066;PMS7003;18573;47.890;35.066;2022-09-09T05:48:53;10.00;8.80;8.80
32066;PMS7003;18573;47.890;35.066;2022-09-09T05:51:23;20.40;18.00;13.00
32066;PMS7003;18573;47.890;35.066;2022-09-09T05:53:55;17.60;17.60;13.20
32066;PMS7003;18573;47.890;35.066;2022-09-09T05:56:28;19.20;19.20;12.00
32066;PMS7003;18573;47.890;35.066;2022-09-09T05:58:59;17.20;17.20;12.00
32066;PMS7003;18573;47.890;35.066;2022-09-09T06:01:30;19.00;19.00;13.00
32066;PMS7003;18573;47.890;35.066;2022-09-09T06:04:01;16.00;16.00;12.60
32066;PMS7003;18573;47.890;35.066;2022-09-09T06:06:31;17.00;16.20;11.80
32066;PMS7003;18573;47.890;35.066;2022-09-09T06:09:07;21.00;18.60;10.40
32066;PMS7003;18573;47.890;35.066;2022-09-09T06:11:38;11.00;11.00;4.80
32066;PMS7003;18573;47.890;35.066;2022-09-09T06:14:08;17.40;17.40;12.00
32066;PMS7003;18573;47.890;35.066;2022-09-09T06:16:37;15.80;14.00;8.60
32066;PMS7003;18573;47.890;35.066;2022-09-09T06:19:06;14.80;14.20;9.00
32066;PMS7003;18573;47.890;35.066;2022-09-09T06:21:36;18.80;16.40;11.20
32066;PMS7003;18573;47.890;35.066;2022-09-09T06:24:05;15.80;13.80;10.20
32066;PMS7003;18573;47.890;35.066;2022-09-09T06:26:35;15.40;15.40;10.20
32066;PMS7003;18573;47.890;35.066;2022-09-09T06:29:08;18.60;18.20;12.40
32066;PMS7003;18573;47.890;35.066;2022-09-09T06:31:38;15.20;13.80;9.40
32066;PMS7003;18573;47.890;35.066;2022-09-09T06:34:08;15.80;15.20;10.00
32066;PMS7003;18573;47.890;35.066;2022-09-09T06:36:37;20.60;19.00;11.40
32066;PMS7003;18573;47.890;35.066;2022-09-09T06:39:07;20.40;18.00;11.40
32066;PMS7003;18573;47.890;35.066;2022-09-09T06:41:39;12.60;12.40;9.00
32066;PMS7003;18573;47.890;35.066;2022-09-09T06:44:09;17.20;14.20;9.80
32066;PMS7003;18573;47.890;35.066;2022-09-09T06:46:39;17.60;17.40;11.60
32066;PMS7003;18573;47.890;35.066;2022-09-09T06:49:08;17.80;16.80;11.60
32066;PMS7003;18573;47.890;35.066;2022-09-09T06:51:37;18.20;17.20;10.60
32066;PMS7003;18573;47.890;35.066;2022-09-09T06:54:09;16.00;15.60;9.40
32066;PMS7003;18573;47.890;35.066;2022-09-09T06:56:39;20.00;18.20;12.00
32066;PMS7003;18573;47.890;35.066;2022-09-09T06:59:10;18.40;17.60;11.00
32066;PMS7003;18573;47.890;35.066;2022-09-09T07:01:41;14.60;14.60;9.60
32066;PMS7003;18573;47.890;35.066;2022-09-09T07:04:15;13.60;13.60;10.20
32066;PMS7003;18573;47.890;35.066;2022-09-09T07:06:44;19.80;19.00;12.60
32066;PMS7003;18573;47.890;35.066;2022-09-09T07:09:15;16.80;15.20;10.80
32066;PMS7003;18573;47.890;35.066;2022-09-09T07:11:46;19.80;18.00;11.60
32066;PMS7003;18573;47.890;35.066;2022-09-09T07:14:17;14.40;14.00;9.20
32066;PMS7003;18573;47.890;35.066;2022-09-09T07:16:48;16.40;16.00;10.80
32066;PMS7003;18573;47.890;35.066;2022-09-09T07:19:19;19.00;19.00;11.40
32066;PMS7003;18573;47.890;35.066;2022-09-09T07:21:48;12.60;12.60;8.80
32066;PMS7003;18573;47.890;35.066;2022-09-09T07:24:17;16.40;14.00;10.20
32066;PMS7003;18573;47.890;35.066;2022-09-09T07:26:47;13.60;13.60;10.00
32066;PMS7003;18573;47.890;35.066;2022-09-09T07:29:16;10.00;10.00;7.00
32066;PMS7003;18573;47.890;35.066;2022-09-09T07:31:47;14.20;12.60;7.00
32066;PMS7003;18573;47.890;35.066;2022-09-09T07:34:16;13.00;10.40;7.80
32066;PMS7003;18573;47.890;35.066;2022-09-09T07:36:45;10.00;9.40;5.80
32066;PMS7003;18573;47.890;35.066;2022-09-09T07:39:15;10.60;10.60;7.40
32066;PMS7003;18573;47.890;35.066;2022-09-09T07:41:45;10.60;10.60;7.20
32066;PMS7003;18573;47.890;35.066;2022-09-09T07:44:17;11.60;11.20;7.60
32066;PMS7003;18573;47.890;35.066;2022-09-09T07:46:48;7.00;7.00;4.40
32066;PMS7003;18573;47.890;35.066;2022-09-09T07:49:18;14.00;12.80;8.60
32066;PMS7003;18573;47.890;35.066;2022-09-09T07:51:49;10.00;10.00;7.00
32066;PMS7003;18573;47.890;35.066;2022-09-09T07:54:19;8.80;8.00;6.40
32066;PMS7003;18573;47.890;35.066;2022-09-09T07:56:50;13.80;12.80;9.00
32066;PMS7003;18573;47.890;35.066;2022-09-09T07:59:20;11.40;11.40;7.00
32066;PMS7003;18573;47.890;35.066;2022-09-09T08:01:51;5.60;5.60;3.60
32066;PMS7003;18573;47.890;35.066;2022-09-09T08:04:22;11.60;11.00;7.80
32066;PMS7003;18573;47.890;35.066;2022-09-09T08:06:56;9.00;9.00;5.40
32066;PMS7003;18573;47.890;35.066;2022-09-09T08:09:28;8.00;8.00;6.00
32066;PMS7003;18573;47.890;35.066;2022-09-09T08:11:59;8.20;8.20;6.20
32066;PMS7003;18573;47.890;35.066;2022-09-09T08:14:28;10.40;10.40;6.60
32066;PMS7003;18573;47.890;35.066;2022-09-09T08:16:57;7.00;6.00;4.20
32066;PMS7003;18573;47.890;35.066;2022-09-09T08:19:26;7.00;7.00;4.00
32066;PMS7003;18573;47.890;35.066;2022-09-09T08:21:57;6.80;6.80;5.60
32066;PMS7003;18573;47.890;35.066;2022-09-09T08:24:26;8.40;8.40;5.00
32066;PMS7003;18573;47.890;35.066;2022-09-09T08:26:55;10.00;10.00;5.00
32066;PMS7003;18573;47.890;35.066;2022-09-09T08:29:24;10.20;7.60;4.80
32066;PMS7003;18573;47.890;35.066;2022-09-09T08:31:56;7.00;7.00;4.60
32066;PMS7003;18573;47.890;35.066;2022-09-09T08:34:26;8.00;7.40;6.00
32066;PMS7003;18573;47.890;35.066;2022-09-09T08:36:57;9.60;8.80;5.20
32066;PMS7003;18573;47.890;35.066;2022-09-09T08:39:26;11.40;10.00;6.60
32066;PMS7003;18573;47.890;35.066;2022-09-09T08:50:24;12.00;11.80;7.80
32066;PMS7003;18573;47.890;35.066;2022-09-09T08:53:05;15.20;13.20;9.00
32066;PMS7003;18573;47.890;35.066;2022-09-09T08:55:48;15.40;15.40;9.40
32066;PMS7003;18573;47.890;35.066;2022-09-09T08:58:22;13.00;12.80;8.80
32066;PMS7003;18573;47.890;35.066;2022-09-09T09:03:50;16.00;16.00;11.60
32066;PMS7003;18573;47.890;35.066;2022-09-09T09:09:23;12.40;11.00;8.60
32066;PMS7003;18573;47.890;35.066;2022-09-09T09:11:56;11.00;11.00;8.20
32066;PMS7003;18573;47.890;35.066;2022-09-09T09:14:25;14.80;13.80;9.60
32066;PMS7003;18573;47.890;35.066;2022-09-09T09:17:01;14.80;12.60;9.20
32066;PMS7003;18573;47.890;35.066;2022-09-09T09:19:33;13.60;12.60;8.00
32066;PMS7003;18573;47.890;35.066;2022-09-09T09:27:44;17.20;13.20;7.60
32066;PMS7003;18573;47.890;35.066;2022-09-09T09:30:19;16.40;16.00;9.80
32066;PMS7003;18573;47.890;35.066;2022-09-09T09:32:53;14.80;14.80;10.00
32066;PMS7003;18573;47.890;35.066;2022-09-09T09:35:23;21.60;18.60;11.80
32066;PMS7003;18573;47.890;35.066;2022-09-09T09:37:53;23.40;19.60;11.80
32066;PMS7003;18573;47.890;35.066;2022-09-09T09:40:24;18.20;16.00;11.40
32066;PMS7003;18573;47.890;35.066;2022-09-09T09:42:57;12.00;10.40;8.20
32066;PMS7003;18573;47.890;35.066;2022-09-09T09:46:29;19.60;18.40;11.60
32066;PMS7003;18573;47.890;35.066;2022-09-09T09:48:17;17.40;14.60;10.40
32066;PMS7003;18573;47.890;35.066;2022-09-09T09:50:46;17.80;17.80;12.00
32066;PMS7003;18573;47.890;35.066;2022-09-09T09:58:31;27.20;27.20;17.20
32066;PMS7003;18573;47.890;35.066;2022-09-09T10:01:25;28.80;28.40;20.00
32066;PMS7003;18573;47.890;35.066;2022-09-09T10:04:13;33.40;27.80;19.00
32066;PMS7003;18573;47.890;35.066;2022-09-09T10:06:51;36.60;32.40;19.20
32066;PMS7003;18573;47.890;35.066;2022-09-09T10:09:24;40.40;33.20;21.80
32066;PMS7003;18573;47.890;35.066;2022-09-09T10:12:06;38.00;30.40;19.00
32066;PMS7003;18573;47.890;35.066;2022-09-09T10:17:54;30.80;28.00;16.80
32066;PMS7003;18573;47.890;35.066;2022-09-09T10:40:15;25.60;25.00;15.40
32066;PMS7003;18573;47.890;35.066;2022-09-09T10:42:50;22.00;18.40;12.00
32066;PMS7003;18573;47.890;35.066;2022-09-09T10:45:28;21.80;17.80;11.80
32066;PMS7003;18573;47.890;35.066;2022-09-09T10:48:08;16.80;16.60;11.60
32066;PMS7003;18573;47.890;35.066;2022-09-09T10:53:49;26.80;23.00;15.00
32066;PMS7003;18573;47.890;35.066;2022-09-09T10:56:24;19.60;19.20;12.40
32066;PMS7003;18573;47.890;35.066;2022-09-09T10:59:04;18.00;18.00;8.60
32066;PMS7003;18573;47.890;35.066;2022-09-09T11:01:49;18.80;17.00;10.80
32066;PMS7003;18573;47.890;35.066;2022-09-09T11:04:43;12.40;11.60;7.20
32066;PMS7003;18573;47.890;35.066;2022-09-09T11:07:10;13.00;11.60;7.80
32066;PMS7003;18573;47.890;35.066;2022-09-09T11:09:43;9.60;8.40;2.40
32066;PMS7003;18573;47.890;35.066;2022-09-09T11:12:15;10.80;9.40;5.40
32066;PMS7003;18573;47.890;35.066;2022-09-09T11:14:50;11.40;10.80;6.20
32066;PMS7003;18573;47.890;35.066;2022-09-09T11:17:40;8.80;8.80;6.60
32066;PMS7003;18573;47.890;35.066;2022-09-09T11:20:11;13.00;10.80;6.80
32066;PMS7003;18573;47.890;35.066;2022-09-09T11:22:53;10.60;9.80;6.20
32066;PMS7003;18573;47.890;35.066;2022-09-09T11:25:32;8.80;8.80;6.00
32066;PMS7003;18573;47.890;35.066;2022-09-09T11:28:21;9.80;9.60;7.00
32066;PMS7003;18573;47.890;35.066;2022-09-09T11:31:02;13.40;10.80;7.00
32066;PMS7003;18573;47.890;35.066;2022-09-09T11:39:10;7.00;6.00;3.80
32066;PMS7003;18573;47.890;35.066;2022-09-09T11:41:50;11.80;11.20;7.80
32066;PMS7003;18573;47.890;35.066;2022-09-09T11:44:25;11.60;11.00;6.80
32066;PMS7003;18573;47.890;35.066;2022-09-09T11:46:54;10.40;10.40;8.40
32066;PMS7003;18573;47.890;35.066;2022-09-09T11:49:39;11.20;11.20;7.60
32066;PMS7003;18573;47.890;35.066;2022-09-09T11:55:12;8.00;8.00;6.60
32066;PMS7003;18573;47.890;35.066;2022-09-09T11:58:00;9.80;9.80;5.00
32066;PMS7003;18573;47.890;35.066;2022-09-09T12:00:48;9.20;9.20;6.80
32066;PMS7003;18573;47.890;35.066;2022-09-09T12:08:56;13.40;12.00;9.20
32066;PMS7003;18573;47.890;35.066;2022-09-09T12:11:27;11.20;10.80;9.20
32066;PMS7003;18573;47.890;35.066;2022-09-09T12:14:00;11.80;11.80;8.40
32066;PMS7003;18573;47.890;35.066;2022-09-09T12:16:31;10.20;10.20;7.20
32066;PMS7003;18573;47.890;35.066;2022-09-09T12:19:12;11.60;11.00;7.80
32066;PMS7003;18573;47.890;35.066;2022-09-09T12:21:44;10.40;8.80;7.00
32066;PMS7003;18573;47.890;35.066;2022-09-09T12:24:20;11.00;11.00;7.20
32066;PMS7003;18573;47.890;35.066;2022-09-09T12:27:07;12.00;11.80;7.60
32066;PMS7003;18573;47.890;35.066;2022-09-09T12:29:27;10.80;10.80;7.20
32066;PMS7003;18573;47.890;35.066;2022-09-09T12:32:13;9.80;8.80;4.60
32066;PMS7003;18573;47.890;35.066;2022-09-09T12:34:47;12.40;12.20;6.80
32066;PMS7003;18573;47.890;35.066;2022-09-09T12:39:58;12.00;12.00;8.60
32066;PMS7003;18573;47.890;35.066;2022-09-09T12:42:30;9.60;9.60;6.20
32066;PMS7003;18573;47.890;35.066;2022-09-09T12:45:02;12.40;12.40;7.80
32066;PMS7003;18573;47.890;35.066;2022-09-09T12:47:38;9.60;9.40;6.00
32066;PMS7003;18573;47.890;35.066;2022-09-09T12:50:17;10.00;10.00;6.60
32066;PMS7003;18573;47.890;35.066;2022-09-09T12:52:58;7.20;7.20;5.00
32066;PMS7003;18573;47.890;35.066;2022-09-09T12:55:28;9.40;6.60;5.20
32066;PMS7003;18573;47.890;35.066;2022-09-09T12:57:57;8.80;7.40;4.60
32066;PMS7003;18573;47.890;35.066;2022-09-09T13:00:30;12.40;11.80;7.00
32066;PMS7003;18573;47.890;35.066;2022-09-09T13:03:00;11.80;10.40;7.40
32066;PMS7003;18573;47.890;35.066;2022-09-09T13:05:35;8.60;8.60;5.60
32066;PMS7003;18573;47.890;35.066;2022-09-09T13:08:06;6.60;6.40;3.40
32066;PMS7003;18573;47.890;35.066;2022-09-09T13:10:50;9.80;6.40;3.00
32066;PMS7003;18573;47.890;35.066;2022-09-09T13:13:29;9.20;9.20;6.60
32066;PMS7003;18573;47.890;35.066;2022-09-09T13:16:04;14.00;14.00;9.40
32066;PMS7003;18573;47.890;35.066;2022-09-09T13:18:39;11.60;11.20;8.60
32066;PMS7003;18573;47.890;35.066;2022-09-09T13:21:09;10.00;10.00;7.60
32066;PMS7003;18573;47.890;35.066;2022-09-09T13:23:38;14.40;12.60;8.00
32066;PMS7003;18573;47.890;35.066;2022-09-09T13:26:20;15.00;13.20;7.60
32066;PMS7003;18573;47.890;35.066;2022-09-09T13:28:55;17.20;13.20;9.20
32066;PMS7003;18573;47.890;35.066;2022-09-09T13:31:36;11.60;11.60;6.60
32066;PMS7003;18573;47.890;35.066;2022-09-09T13:36:59;9.40;9.40;7.40
32066;PMS7003;18573;47.890;35.066;2022-09-09T13:39:30;15.40;14.60;9.00
32066;PMS7003;18573;47.890;35.066;2022-09-09T13:42:03;12.40;11.00;8.20
32066;PMS7003;18573;47.890;35.066;2022-09-09T13:44:34;6.60;6.60;5.20
32066;PMS7003;18573;47.890;35.066;2022-09-09T13:47:17;13.20;13.20;6.80
32066;PMS7003;18573;47.890;35.066;2022-09-09T13:49:39;10.60;10.60;6.80
32066;PMS7003;18573;47.890;35.066;2022-09-09T13:52:12;14.00;14.00;9.40
32066;PMS7003;18573;47.890;35.066;2022-09-09T13:54:54;10.40;10.40;6.80
32066;PMS7003;18573;47.890;35.066;2022-09-09T13:57:19;14.20;13.80;7.40
32066;PMS7003;18573;47.890;35.066;2022-09-09T13:59:52;13.00;12.80;7.60
32066;PMS7003;18573;47.890;35.066;2022-09-09T14:02:24;13.00;13.00;10.20
32066;PMS7003;18573;47.890;35.066;2022-09-09T14:04:53;13.60;13.20;8.40
32066;PMS7003;18573;47.890;35.066;2022-09-09T14:07:22;16.00;14.00;8.60
32066;PMS7003;18573;47.890;35.066;2022-09-09T14:09:52;20.60;20.00;11.20
32066;PMS7003;18573;47.890;35.066;2022-09-09T14:12:21;23.80;19.80;13.40
32066;PMS7003;18573;47.890;35.066;2022-09-09T14:14:50;15.20;15.20;10.40
32066;PMS7003;18573;47.890;35.066;2022-09-09T14:17:19;15.40;14.00;10.40
32066;PMS7003;18573;47.890;35.066;2022-09-09T14:19:49;15.60;13.40;8.00
32066;PMS7003;18573;47.890;35.066;2022-09-09T14:22:18;14.20;14.20;9.40
32066;PMS7003;18573;47.890;35.066;2022-09-09T14:24:47;17.40;16.00;8.80
32066;PMS7003;18573;47.890;35.066;2022-09-09T14:27:18;16.00;16.00;8.80
32066;PMS7003;18573;47.890;35.066;2022-09-09T14:29:47;14.00;14.00;10.00
32066;PMS7003;18573;47.890;35.066;2022-09-09T14:32:16;14.00;12.20;7.60
32066;PMS7003;18573;47.890;35.066;2022-09-09T14:34:45;16.80;16.20;9.00
32066;PMS7003;18573;47.890;35.066;2022-09-09T14:37:16;20.60;20.60;11.80
32066;PMS7003;18573;47.890;35.066;2022-09-09T14:39:45;16.20;14.40;8.40
32066;PMS7003;18573;47.890;35.066;2022-09-09T14:42:16;13.80;9.80;4.60
32066;PMS7003;18573;47.890;35.066;2022-09-09T14:44:46;15.60;15.60;9.40
32066;PMS7003;18573;47.890;35.066;2022-09-09T14:47:15;19.40;16.40;9.40
32066;PMS7003;18573;47.890;35.066;2022-09-09T14:49:44;17.80;15.40;8.40
32066;PMS7003;18573;47.890;35.066;2022-09-09T14:52:15;19.00;16.80;9.60
32066;PMS7003;18573;47.890;35.066;2022-09-09T14:54:44;15.20;15.20;9.00
32066;PMS7003;18573;47.890;35.066;2022-09-09T14:57:13;17.20;16.00;9.80
32066;PMS7003;18573;47.890;35.066;2022-09-09T14:59:42;14.00;14.00;8.00
32066;PMS7003;18573;47.890;35.066;2022-09-09T15:02:11;12.20;12.00;7.60
32066;PMS7003;18573;47.890;35.066;2022-09-09T15:04:41;20.00;17.40;10.80
32066;PMS7003;18573;47.890;35.066;2022-09-09T15:07:11;20.20;17.00;13.00
32066;PMS7003;18573;47.890;35.066;2022-09-09T15:09:40;16.60;16.40;10.40
32066;PMS7003;18573;47.890;35.066;2022-09-09T15:12:09;17.20;16.00;9.60
32066;PMS7003;18573;47.890;35.066;2022-09-09T15:14:38;14.80;14.80;11.20
32066;PMS7003;18573;47.890;35.066;2022-09-09T15:17:07;19.20;18.20;12.40
32066;PMS7003;18573;47.890;35.066;2022-09-09T15:19:37;9.60;7.60;1.60
32066;PMS7003;18573;47.890;35.066;2022-09-09T15:22:06;13.40;11.60;5.20
32066;PMS7003;18573;47.890;35.066;2022-09-09T15:24:35;16.80;16.40;9.00
32066;PMS7003;18573;47.890;35.066;2022-09-09T15:27:04;12.60;12.60;8.20
32066;PMS7003;18573;47.890;35.066;2022-09-09T15:29:34;18.60;16.40;8.20
32066;PMS7003;18573;47.890;35.066;2022-09-09T15:32:04;18.20;13.40;8.80
32066;PMS7003;18573;47.890;35.066;2022-09-09T15:34:33;18.80;18.80;10.80
32066;PMS7003;18573;47.890;35.066;2022-09-09T15:37:02;14.60;12.80;6.80
32066;PMS7003;18573;47.890;35.066;2022-09-09T15:39:33;20.00;15.60;7.80
32066;PMS7003;18573;47.890;35.066;2022-09-09T15:42:04;22.60;21.40;14.00
32066;PMS7003;18573;47.890;35.066;2022-09-09T15:44:40;19.00;17.80;9.80
32066;PMS7003;18573;47.890;35.066;2022-09-09T15:47:12;19.80;17.20;10.40
32066;PMS7003;18573;47.890;35.066;2022-09-09T15:49:42;13.40;13.00;7.00
32066;PMS7003;18573;47.890;35.066;2022-09-09T15:52:11;18.00;16.00;6.00
32066;PMS7003;18573;47.890;35.066;2022-09-09T15:54:40;19.00;16.60;8.00
32066;PMS7003;18573;47.890;35.066;2022-09-09T15:57:11;22.80;17.20;8.60
32066;PMS7003;18573;47.890;35.066;2022-09-09T15:59:41;14.80;14.80;9.40
32066;PMS7003;18573;47.890;35.066;2022-09-09T16:02:12;14.20;14.20;9.20